Bookmark and Share
Track history (hours):
 

Zeran (malta)

Last reported at 2014-Apr-24 19:33 UTC. Time now 2014-Apr-24 21:55 UTC.
Position N 40°29' E 014°33'.

Length 148 m; beam 24 m.

Type: Cargo ship. MMSI: 249846000.

NotesDate/timePositionNaut miles runAvg speedWind from/ knotsBaromVisibWave heightAir tempDewpointWater temp
2014-Apr-24 19:33N 40°29' E 014°33'  
2014-Apr-22 03:11N 36°50' E 010°24'5 7.2
2014-Apr-22 02:33N 36°55' E 010°25'7 6.7
2014-Apr-22 01:33N 37°01' E 010°27'6 5.7
2014-Apr-22 00:33N 37°07' E 010°29'5 4.6
2014-Apr-21 23:33N 37°12' E 010°29'4 4.5
2014-Apr-21 22:33N 37°16' E 010°30'5 5.1
2014-Apr-21 21:33N 37°21' E 010°30'6 6.1
2014-Apr-21 20:33N 37°27' E 010°28'8 8.0
2014-Apr-21 19:33N 37°35' E 010°25'1110.5
2014-Apr-21 18:31N 37°45' E 010°23'1111.2
2014-Apr-21 17:33N 37°56' E 010°20'32210.7
2014-Apr-20 11:22N 43°15' E 009°29'910.9
2014-Apr-20 10:33N 43°24' E 009°24'1110.7
2014-Apr-20 09:33N 43°34' E 009°20'1110.6
2014-Apr-20 08:33N 43°44' E 009°14'1110.6
2014-Apr-20 07:33N 43°54' E 009°10'1010.5
2014-Apr-20 06:33N 44°03' E 009°05'1010.1
2014-Apr-20 05:33N 44°13' E 009°01'1010.5
2014-Apr-20 04:33N 44°23' E 008°56'3 3.1
2014-Apr-20 03:33N 44°24' E 008°53'0 0.0
2014-Apr-20 02:33N 44°24' E 008°53'0 0.0
2014-Apr-20 01:33N 44°24' E 008°53'0 0.0
2014-Apr-20 00:33N 44°24' E 008°53'0 0.0
2014-Apr-19 23:27N 44°24' E 008°53'0 0.0
2014-Apr-19 22:33N 44°24' E 008°53'0 0.0
2014-Apr-19 21:33N 44°24' E 008°53'0 0.0
2014-Apr-19 20:33N 44°24' E 008°53'0 0.0
2014-Apr-19 19:27N 44°24' E 008°53'0 0.0
2014-Apr-19 18:33N 44°24' E 008°53'0 0.0
2014-Apr-19 17:33N 44°24' E 008°53'0 0.0
2014-Apr-19 16:30N 44°24' E 008°53'0 0.0
2014-Apr-19 15:33N 44°24' E 008°53'0 0.0
2014-Apr-19 14:33N 44°24' E 008°53'0 0.0
2014-Apr-19 13:33N 44°24' E 008°53'0 0.0
2014-Apr-19 12:33N 44°24' E 008°53'0 0.0
2014-Apr-19 11:33N 44°24' E 008°53'0 0.0
2014-Apr-19 10:15N 44°24' E 008°53'0 0.0
2014-Apr-19 09:15N 44°24' E 008°53'0 0.0
2014-Apr-19 08:33N 44°24' E 008°53'0 0.0
2014-Apr-19 07:27N 44°24' E 008°53'0 0.0
2014-Apr-19 06:32N 44°24' E 008°53'7 7.4
2014-Apr-19 05:33N 44°19' E 008°59'1211.8
2014-Apr-19 04:33N 44°08' E 009°04'1312.9
2014-Apr-19 03:33N 43°56' E 009°11'1312.6
2014-Apr-19 02:33N 43°44' E 009°17'1312.9
2014-Apr-19 01:33N 43°32' E 009°23'1312.8
2014-Apr-19 00:33N 43°20' E 009°28'1312.8
2014-Apr-18 23:33N 43°08' E 009°35'2712.9
2014-Apr-18 21:27N 42°42' E 009°48'  
2014-Apr-15 22:17N 36°48' E 010°16'0 0.0
2014-Apr-15 21:29N 36°48' E 010°16'  

Dump ship's entire track history

sailing weather and tide predictions

Zeran (malta) — 9HHJ5 — position and weather